sensor_id;sensor_type;location;lat;lon;timestamp;temperature;humidity
61896;DHT22;47835;52.778;5.956;2024-02-26T00:00:37;3.90;99.90
61896;DHT22;47835;52.778;5.956;2024-02-26T00:03:03;4.00;99.90
61896;DHT22;47835;52.778;5.956;2024-02-26T00:05:28;3.90;99.90
61896;DHT22;47835;52.778;5.956;2024-02-26T00:07:54;4.00;99.90
61896;DHT22;47835;52.778;5.956;2024-02-26T00:10:20;4.00;99.90
61896;DHT22;47835;52.778;5.956;2024-02-26T00:12:45;3.90;99.90
61896;DHT22;47835;52.778;5.956;2024-02-26T00:15:11;3.90;99.90
61896;DHT22;47835;52.778;5.956;2024-02-26T00:20:03;3.60;99.90
61896;DHT22;47835;52.778;5.956;2024-02-26T01:11:16;3.50;99.90
61896;DHT22;47835;52.778;5.956;2024-02-26T01:13:41;3.40;99.90
61896;DHT22;47835;52.778;5.956;2024-02-26T01:18:33;3.40;99.90
61896;DHT22;47835;52.778;5.956;2024-02-26T01:20:59;3.50;99.90
61896;DHT22;47835;52.778;5.956;2024-02-26T01:23:24;3.40;99.90
61896;DHT22;47835;52.778;5.956;2024-02-26T01:25:50;3.40;99.90
61896;DHT22;47835;52.778;5.956;2024-02-26T01:28:16;3.40;99.90
61896;DHT22;47835;52.778;5.956;2024-02-26T01:40:29;3.60;99.90
61896;DHT22;47835;52.778;5.956;2024-02-26T01:45:21;3.70;99.90
61896;DHT22;47835;52.778;5.956;2024-02-26T01:47:53;3.70;99.90
61896;DHT22;47835;52.778;5.956;2024-02-26T01:50:19;3.70;99.90
61896;DHT22;47835;52.778;5.956;2024-02-26T01:52:50;3.70;99.90
61896;DHT22;47835;52.778;5.956;2024-02-26T01:55:17;3.70;99.90
61896;DHT22;47835;52.778;5.956;2024-02-26T01:57:45;3.80;99.90
61896;DHT22;47835;52.778;5.956;2024-02-26T02:00:14;3.70;99.90
61896;DHT22;47835;52.778;5.956;2024-02-26T02:05:10;3.70;99.90
61896;DHT22;47835;52.778;5.956;2024-02-26T02:10:03;3.70;99.90
61896;DHT22;47835;52.778;5.956;2024-02-26T02:14:58;3.80;99.90
61896;DHT22;47835;52.778;5.956;2024-02-26T02:19:50;3.90;99.90
61896;DHT22;47835;52.778;5.956;2024-02-26T02:32:01;3.70;99.90
61896;DHT22;47835;52.778;5.956;2024-02-26T02:39:21;3.90;99.90
61896;DHT22;47835;52.778;5.956;2024-02-26T02:41:47;3.80;99.90
61896;DHT22;47835;52.778;5.956;2024-02-26T02:49:09;3.70;99.90
61896;DHT22;47835;52.778;5.956;2024-02-26T02:51:35;3.80;99.90
61896;DHT22;47835;52.778;5.956;2024-02-26T02:54:01;3.80;99.90
61896;DHT22;47835;52.778;5.956;2024-02-26T02:56:27;3.80;99.90
61896;DHT22;47835;52.778;5.956;2024-02-26T02:58:52;3.70;99.90
61896;DHT22;47835;52.778;5.956;2024-02-26T03:01:18;3.80;99.90
61896;DHT22;47835;52.778;5.956;2024-02-26T03:03:44;3.80;99.90
61896;DHT22;47835;52.778;5.956;2024-02-26T03:06:09;3.80;99.90
61896;DHT22;47835;52.778;5.956;2024-02-26T03:11:05;3.80;99.90
61896;DHT22;47835;52.778;5.956;2024-02-26T03:13:31;3.90;99.90
61896;DHT22;47835;52.778;5.956;2024-02-26T03:15:57;3.80;99.90
61896;DHT22;47835;52.778;5.956;2024-02-26T03:18:22;3.80;99.90
61896;DHT22;47835;52.778;5.956;2024-02-26T03:20:49;3.80;99.90
61896;DHT22;47835;52.778;5.956;2024-02-26T03:23:15;3.80;99.90
61896;DHT22;47835;52.778;5.956;2024-02-26T03:25:45;3.80;99.90
61896;DHT22;47835;52.778;5.956;2024-02-26T03:28:14;3.80;99.90
61896;DHT22;47835;52.778;5.956;2024-02-26T03:30:39;3.90;99.90
61896;DHT22;47835;52.778;5.956;2024-02-26T03:33:05;3.90;99.90
61896;DHT22;47835;52.778;5.956;2024-02-26T03:35:31;3.90;99.90
61896;DHT22;47835;52.778;5.956;2024-02-26T03:37:56;3.80;99.90
61896;DHT22;47835;52.778;5.956;2024-02-26T03:40:22;3.90;99.90
61896;DHT22;47835;52.778;5.956;2024-02-26T03:42:48;3.80;99.90
61896;DHT22;47835;52.778;5.956;2024-02-26T03:45:14;3.80;99.90
61896;DHT22;47835;52.778;5.956;2024-02-26T03:47:39;3.90;99.90
61896;DHT22;47835;52.778;5.956;2024-02-26T03:50:06;3.80;99.90
61896;DHT22;47835;52.778;5.956;2024-02-26T03:52:33;3.80;99.90
61896;DHT22;47835;52.778;5.956;2024-02-26T03:54:59;3.80;99.90
61896;DHT22;47835;52.778;5.956;2024-02-26T03:57:25;3.90;99.90
61896;DHT22;47835;52.778;5.956;2024-02-26T03:59:51;3.90;99.90
61896;DHT22;47835;52.778;5.956;2024-02-26T04:02:16;3.90;99.90
61896;DHT22;47835;52.778;5.956;2024-02-26T04:04:45;3.90;99.90
61896;DHT22;47835;52.778;5.956;2024-02-26T04:07:11;3.90;99.90
61896;DHT22;47835;52.778;5.956;2024-02-26T04:09:37;3.80;99.90
61896;DHT22;47835;52.778;5.956;2024-02-26T04:12:03;3.90;99.90
61896;DHT22;47835;52.778;5.956;2024-02-26T04:14:29;3.90;99.90
61896;DHT22;47835;52.778;5.956;2024-02-26T04:16:54;3.80;99.90
61896;DHT22;47835;52.778;5.956;2024-02-26T04:19:20;3.90;99.90
61896;DHT22;47835;52.778;5.956;2024-02-26T04:21:46;3.90;99.90
61896;DHT22;47835;52.778;5.956;2024-02-26T04:24:12;3.90;99.90
61896;DHT22;47835;52.778;5.956;2024-02-26T04:26:37;3.90;99.90
61896;DHT22;47835;52.778;5.956;2024-02-26T04:29:03;3.90;99.90
61896;DHT22;47835;52.778;5.956;2024-02-26T04:31:29;3.90;99.90
61896;DHT22;47835;52.778;5.956;2024-02-26T04:33:55;3.90;99.90
61896;DHT22;47835;52.778;5.956;2024-02-26T04:36:21;3.90;99.90
61896;DHT22;47835;52.778;5.956;2024-02-26T04:38:47;3.90;99.90
61896;DHT22;47835;52.778;5.956;2024-02-26T04:41:13;3.90;99.90
61896;DHT22;47835;52.778;5.956;2024-02-26T04:43:39;3.90;99.90
61896;DHT22;47835;52.778;5.956;2024-02-26T04:46:07;3.80;99.90
61896;DHT22;47835;52.778;5.956;2024-02-26T04:48:34;3.90;99.90
61896;DHT22;47835;52.778;5.956;2024-02-26T04:51:00;3.90;99.90
61896;DHT22;47835;52.778;5.956;2024-02-26T04:53:26;3.80;99.90
61896;DHT22;47835;52.778;5.956;2024-02-26T04:55:55;3.90;99.90
61896;DHT22;47835;52.778;5.956;2024-02-26T04:58:21;3.90;99.90
61896;DHT22;47835;52.778;5.956;2024-02-26T05:00:50;3.90;99.90
61896;DHT22;47835;52.778;5.956;2024-02-26T05:03:16;4.00;99.90
61896;DHT22;47835;52.778;5.956;2024-02-26T05:05:45;3.90;99.90
61896;DHT22;47835;52.778;5.956;2024-02-26T05:08:11;3.90;99.90
61896;DHT22;47835;52.778;5.956;2024-02-26T05:10:40;3.90;99.90
61896;DHT22;47835;52.778;5.956;2024-02-26T05:13:09;3.80;99.90
61896;DHT22;47835;52.778;5.956;2024-02-26T05:15:36;3.90;99.90
61896;DHT22;47835;52.778;5.956;2024-02-26T05:18:02;3.80;99.90
61896;DHT22;47835;52.778;5.956;2024-02-26T05:20:28;3.90;99.90
61896;DHT22;47835;52.778;5.956;2024-02-26T05:22:54;3.90;99.90
61896;DHT22;47835;52.778;5.956;2024-02-26T05:25:20;3.90;99.90
61896;DHT22;47835;52.778;5.956;2024-02-26T05:27:46;3.90;99.90
61896;DHT22;47835;52.778;5.956;2024-02-26T05:30:12;3.90;99.90
61896;DHT22;47835;52.778;5.956;2024-02-26T05:32:38;3.80;99.90
61896;DHT22;47835;52.778;5.956;2024-02-26T05:35:04;3.80;99.90
61896;DHT22;47835;52.778;5.956;2024-02-26T05:37:30;3.90;99.90
61896;DHT22;47835;52.778;5.956;2024-02-26T05:39:59;3.90;99.90
61896;DHT22;47835;52.778;5.956;2024-02-26T05:42:24;3.80;99.90
61896;DHT22;47835;52.778;5.956;2024-02-26T05:44:51;3.80;99.90
61896;DHT22;47835;52.778;5.956;2024-02-26T05:47:16;3.80;99.90
61896;DHT22;47835;52.778;5.956;2024-02-26T05:49:43;3.90;99.90
61896;DHT22;47835;52.778;5.956;2024-02-26T05:52:09;3.90;99.90
61896;DHT22;47835;52.778;5.956;2024-02-26T05:54:34;3.90;99.90
61896;DHT22;47835;52.778;5.956;2024-02-26T05:57:01;3.80;99.90
61896;DHT22;47835;52.778;5.956;2024-02-26T05:59:26;3.90;99.90
61896;DHT22;47835;52.778;5.956;2024-02-26T06:01:52;4.00;99.90
61896;DHT22;47835;52.778;5.956;2024-02-26T06:04:18;3.90;99.90
61896;DHT22;47835;52.778;5.956;2024-02-26T06:06:44;3.90;99.90
61896;DHT22;47835;52.778;5.956;2024-02-26T06:09:11;3.80;99.90
61896;DHT22;47835;52.778;5.956;2024-02-26T06:11:37;3.80;99.90
61896;DHT22;47835;52.778;5.956;2024-02-26T06:14:03;3.80;99.90
61896;DHT22;47835;52.778;5.956;2024-02-26T06:16:29;3.90;99.90
61896;DHT22;47835;52.778;5.956;2024-02-26T06:18:54;3.90;99.90
61896;DHT22;47835;52.778;5.956;2024-02-26T06:21:20;3.80;99.90
61896;DHT22;47835;52.778;5.956;2024-02-26T06:23:46;3.90;99.90
61896;DHT22;47835;52.778;5.956;2024-02-26T06:26:11;3.90;99.90
61896;DHT22;47835;52.778;5.956;2024-02-26T06:28:37;4.00;99.90
61896;DHT22;47835;52.778;5.956;2024-02-26T06:31:06;4.00;99.90
61896;DHT22;47835;52.778;5.956;2024-02-26T06:33:32;4.00;99.90
61896;DHT22;47835;52.778;5.956;2024-02-26T06:35:57;3.90;99.90
61896;DHT22;47835;52.778;5.956;2024-02-26T06:38:23;4.00;99.90
61896;DHT22;47835;52.778;5.956;2024-02-26T06:40:49;4.00;99.90
61896;DHT22;47835;52.778;5.956;2024-02-26T06:43:15;4.00;99.90
61896;DHT22;47835;52.778;5.956;2024-02-26T06:45:40;4.00;99.90
61896;DHT22;47835;52.778;5.956;2024-02-26T06:48:06;4.00;99.90
61896;DHT22;47835;52.778;5.956;2024-02-26T06:50:32;4.00;99.90
61896;DHT22;47835;52.778;5.956;2024-02-26T06:52:58;4.00;99.90
61896;DHT22;47835;52.778;5.956;2024-02-26T06:55:24;4.00;99.90
61896;DHT22;47835;52.778;5.956;2024-02-26T06:57:49;4.00;99.90
61896;DHT22;47835;52.778;5.956;2024-02-26T07:00:15;4.10;99.90
61896;DHT22;47835;52.778;5.956;2024-02-26T07:02:42;4.00;99.90
61896;DHT22;47835;52.778;5.956;2024-02-26T07:05:09;4.00;99.90
61896;DHT22;47835;52.778;5.956;2024-02-26T07:07:35;4.10;99.90
61896;DHT22;47835;52.778;5.956;2024-02-26T07:10:01;4.00;99.90
61896;DHT22;47835;52.778;5.956;2024-02-26T07:12:30;4.10;99.90
61896;DHT22;47835;52.778;5.956;2024-02-26T07:14:55;4.00;99.90
61896;DHT22;47835;52.778;5.956;2024-02-26T07:17:21;4.10;99.90
61896;DHT22;47835;52.778;5.956;2024-02-26T07:19:47;4.10;99.90
61896;DHT22;47835;52.778;5.956;2024-02-26T07:22:12;4.10;99.90
61896;DHT22;47835;52.778;5.956;2024-02-26T07:24:39;4.00;99.90
61896;DHT22;47835;52.778;5.956;2024-02-26T07:27:05;4.20;99.90
61896;DHT22;47835;52.778;5.956;2024-02-26T07:29:30;4.30;99.90
61896;DHT22;47835;52.778;5.956;2024-02-26T07:31:56;4.10;99.90
61896;DHT22;47835;52.778;5.956;2024-02-26T07:34:22;4.20;99.90
61896;DHT22;47835;52.778;5.956;2024-02-26T07:36:53;4.20;99.90
61896;DHT22;47835;52.778;5.956;2024-02-26T07:39:19;4.30;99.90
61896;DHT22;47835;52.778;5.956;2024-02-26T07:41:45;4.20;99.90
61896;DHT22;47835;52.778;5.956;2024-02-26T07:44:13;4.30;99.90
61896;DHT22;47835;52.778;5.956;2024-02-26T07:46:39;4.20;99.90
61896;DHT22;47835;52.778;5.956;2024-02-26T07:49:05;4.30;99.90
61896;DHT22;47835;52.778;5.956;2024-02-26T07:51:30;4.40;99.90
61896;DHT22;47835;52.778;5.956;2024-02-26T07:53:56;4.40;99.90
61896;DHT22;47835;52.778;5.956;2024-02-26T07:56:22;4.40;99.90
61896;DHT22;47835;52.778;5.956;2024-02-26T07:58:48;4.30;99.90
61896;DHT22;47835;52.778;5.956;2024-02-26T08:01:14;4.40;99.90
61896;DHT22;47835;52.778;5.956;2024-02-26T08:03:40;4.50;99.90
61896;DHT22;47835;52.778;5.956;2024-02-26T08:06:07;4.40;99.90
61896;DHT22;47835;52.778;5.956;2024-02-26T08:08:33;4.40;99.90
61896;DHT22;47835;52.778;5.956;2024-02-26T08:10:59;4.40;99.90
61896;DHT22;47835;52.778;5.956;2024-02-26T08:13:25;4.50;99.90
61896;DHT22;47835;52.778;5.956;2024-02-26T08:15:52;4.50;99.90
61896;DHT22;47835;52.778;5.956;2024-02-26T08:18:18;4.50;99.90
61896;DHT22;47835;52.778;5.956;2024-02-26T08:20:44;4.50;99.90
61896;DHT22;47835;52.778;5.956;2024-02-26T08:23:10;4.50;99.90
61896;DHT22;47835;52.778;5.956;2024-02-26T08:25:36;4.50;99.90
61896;DHT22;47835;52.778;5.956;2024-02-26T08:28:02;4.50;99.90
61896;DHT22;47835;52.778;5.956;2024-02-26T08:30:28;4.50;99.90
61896;DHT22;47835;52.778;5.956;2024-02-26T08:32:54;4.60;99.90
61896;DHT22;47835;52.778;5.956;2024-02-26T08:35:22;4.60;99.90
61896;DHT22;47835;52.778;5.956;2024-02-26T08:37:50;4.60;99.90
61896;DHT22;47835;52.778;5.956;2024-02-26T08:40:16;4.60;99.90
61896;DHT22;47835;52.778;5.956;2024-02-26T08:42:42;4.60;99.90
61896;DHT22;47835;52.778;5.956;2024-02-26T08:45:08;4.70;99.90
61896;DHT22;47835;52.778;5.956;2024-02-26T08:47:34;4.60;99.90
61896;DHT22;47835;52.778;5.956;2024-02-26T08:50:00;4.70;99.90
61896;DHT22;47835;52.778;5.956;2024-02-26T08:52:25;4.70;99.90
61896;DHT22;47835;52.778;5.956;2024-02-26T08:54:51;4.70;99.90
61896;DHT22;47835;52.778;5.956;2024-02-26T08:57:17;4.70;99.90
61896;DHT22;47835;52.778;5.956;2024-02-26T08:59:43;4.70;99.90
61896;DHT22;47835;52.778;5.956;2024-02-26T09:02:09;4.70;99.90
61896;DHT22;47835;52.778;5.956;2024-02-26T09:04:35;4.80;99.90
61896;DHT22;47835;52.778;5.956;2024-02-26T09:07:01;4.80;99.90
61896;DHT22;47835;52.778;5.956;2024-02-26T09:09:27;4.80;99.90
61896;DHT22;47835;52.778;5.956;2024-02-26T09:11:53;4.80;99.90
61896;DHT22;47835;52.778;5.956;2024-02-26T09:14:21;4.90;99.90
61896;DHT22;47835;52.778;5.956;2024-02-26T09:16:47;4.80;99.90
61896;DHT22;47835;52.778;5.956;2024-02-26T09:19:16;4.80;99.90
61896;DHT22;47835;52.778;5.956;2024-02-26T09:21:45;4.90;99.90
61896;DHT22;47835;52.778;5.956;2024-02-26T09:24:11;4.90;99.90
61896;DHT22;47835;52.778;5.956;2024-02-26T09:26:38;4.90;99.90
61896;DHT22;47835;52.778;5.956;2024-02-26T09:29:03;4.90;99.90
61896;DHT22;47835;52.778;5.956;2024-02-26T09:31:30;5.00;99.90
61896;DHT22;47835;52.778;5.956;2024-02-26T09:33:55;5.00;99.90
61896;DHT22;47835;52.778;5.956;2024-02-26T09:36:21;5.00;99.90
61896;DHT22;47835;52.778;5.956;2024-02-26T09:38:48;5.00;99.90
61896;DHT22;47835;52.778;5.956;2024-02-26T09:41:16;5.10;99.90
61896;DHT22;47835;52.778;5.956;2024-02-26T09:43:44;5.10;99.90
61896;DHT22;47835;52.778;5.956;2024-02-26T09:46:11;5.10;99.90
61896;DHT22;47835;52.778;5.956;2024-02-26T09:48:37;5.10;99.90
61896;DHT22;47835;52.778;5.956;2024-02-26T09:51:04;5.10;99.90
61896;DHT22;47835;52.778;5.956;2024-02-26T09:53:31;5.10;99.90
61896;DHT22;47835;52.778;5.956;2024-02-26T09:56:01;5.20;99.90
61896;DHT22;47835;52.778;5.956;2024-02-26T09:58:29;5.30;99.90
61896;DHT22;47835;52.778;5.956;2024-02-26T10:01:00;5.20;99.90
61896;DHT22;47835;52.778;5.956;2024-02-26T10:03:32;5.30;99.90
61896;DHT22;47835;52.778;5.956;2024-02-26T10:06:00;5.20;99.90
61896;DHT22;47835;52.778;5.956;2024-02-26T10:08:28;5.40;99.90
61896;DHT22;47835;52.778;5.956;2024-02-26T10:10:55;5.30;99.90
61896;DHT22;47835;52.778;5.956;2024-02-26T10:13:21;5.40;99.90
61896;DHT22;47835;52.778;5.956;2024-02-26T10:15:48;5.40;99.90
61896;DHT22;47835;52.778;5.956;2024-02-26T10:18:15;5.50;99.90
61896;DHT22;47835;52.778;5.956;2024-02-26T10:20:40;5.50;99.90
61896;DHT22;47835;52.778;5.956;2024-02-26T10:23:06;5.50;99.90
61896;DHT22;47835;52.778;5.956;2024-02-26T10:25:32;5.50;99.90
61896;DHT22;47835;52.778;5.956;2024-02-26T10:28:01;5.50;99.90
61896;DHT22;47835;52.778;5.956;2024-02-26T10:30:30;5.50;99.90
61896;DHT22;47835;52.778;5.956;2024-02-26T10:32:56;5.50;99.90
61896;DHT22;47835;52.778;5.956;2024-02-26T10:35:23;5.40;99.90
61896;DHT22;47835;52.778;5.956;2024-02-26T10:37:52;5.60;99.90
61896;DHT22;47835;52.778;5.956;2024-02-26T10:40:18;5.70;99.90
61896;DHT22;47835;52.778;5.956;2024-02-26T10:42:44;5.50;99.90
61896;DHT22;47835;52.778;5.956;2024-02-26T10:45:13;5.60;99.90
61896;DHT22;47835;52.778;5.956;2024-02-26T10:47:40;5.60;99.90
61896;DHT22;47835;52.778;5.956;2024-02-26T10:50:08;5.70;99.90
61896;DHT22;47835;52.778;5.956;2024-02-26T10:52:35;5.70;99.90
61896;DHT22;47835;52.778;5.956;2024-02-26T10:55:05;5.80;99.90
61896;DHT22;47835;52.778;5.956;2024-02-26T10:57:36;5.70;99.90
61896;DHT22;47835;52.778;5.956;2024-02-26T11:00:05;5.80;99.90
61896;DHT22;47835;52.778;5.956;2024-02-26T11:02:35;5.80;99.90
61896;DHT22;47835;52.778;5.956;2024-02-26T11:05:04;6.00;99.90
61896;DHT22;47835;52.778;5.956;2024-02-26T11:07:31;5.90;99.90
61896;DHT22;47835;52.778;5.956;2024-02-26T11:10:00;5.90;99.90
61896;DHT22;47835;52.778;5.956;2024-02-26T11:12:28;5.90;99.90
61896;DHT22;47835;52.778;5.956;2024-02-26T11:14:55;5.90;99.90
61896;DHT22;47835;52.778;5.956;2024-02-26T11:17:27;5.90;99.90
61896;DHT22;47835;52.778;5.956;2024-02-26T11:19:58;5.90;99.90
61896;DHT22;47835;52.778;5.956;2024-02-26T11:22:26;5.90;99.90
61896;DHT22;47835;52.778;5.956;2024-02-26T11:24:56;5.90;99.90
61896;DHT22;47835;52.778;5.956;2024-02-26T11:27:44;5.90;99.90
61896;DHT22;47835;52.778;5.956;2024-02-26T11:30:11;5.90;99.90
61896;DHT22;47835;52.778;5.956;2024-02-26T11:32:38;5.90;99.90
61896;DHT22;47835;52.778;5.956;2024-02-26T11:35:07;5.90;99.90
61896;DHT22;47835;52.778;5.956;2024-02-26T11:37:35;5.80;99.90
61896;DHT22;47835;52.778;5.956;2024-02-26T11:40:01;5.90;99.90
61896;DHT22;47835;52.778;5.956;2024-02-26T11:42:27;5.90;99.90
61896;DHT22;47835;52.778;5.956;2024-02-26T11:44:55;5.90;99.90
61896;DHT22;47835;52.778;5.956;2024-02-26T11:47:27;5.90;99.90
61896;DHT22;47835;52.778;5.956;2024-02-26T11:49:53;5.90;99.90
61896;DHT22;47835;52.778;5.956;2024-02-26T11:52:18;6.00;99.90
61896;DHT22;47835;52.778;5.956;2024-02-26T11:54:49;6.00;99.90
61896;DHT22;47835;52.778;5.956;2024-02-26T12:00:16;6.00;99.90
61896;DHT22;47835;52.778;5.956;2024-02-26T12:05:26;5.90;99.90
61896;DHT22;47835;52.778;5.956;2024-02-26T12:08:04;5.90;99.90
61896;DHT22;47835;52.778;5.956;2024-02-26T12:10:41;6.00;99.90
61896;DHT22;47835;52.778;5.956;2024-02-26T12:13:14;6.00;99.90
61896;DHT22;47835;52.778;5.956;2024-02-26T12:15:43;6.00;99.90
61896;DHT22;47835;52.778;5.956;2024-02-26T12:18:10;5.80;99.90
61896;DHT22;47835;52.778;5.956;2024-02-26T12:20:37;6.00;99.90
61896;DHT22;47835;52.778;5.956;2024-02-26T12:23:03;6.20;99.90
61896;DHT22;47835;52.778;5.956;2024-02-26T12:25:30;6.00;99.90
61896;DHT22;47835;52.778;5.956;2024-02-26T12:27:57;6.10;99.90
61896;DHT22;47835;52.778;5.956;2024-02-26T12:30:23;6.10;99.90
61896;DHT22;47835;52.778;5.956;2024-02-26T12:32:50;6.20;99.90
61896;DHT22;47835;52.778;5.956;2024-02-26T12:35:16;6.20;99.90
61896;DHT22;47835;52.778;5.956;2024-02-26T12:37:43;6.10;99.90
61896;DHT22;47835;52.778;5.956;2024-02-26T12:40:10;6.20;99.90
61896;DHT22;47835;52.778;5.956;2024-02-26T12:42:36;6.20;99.90
61896;DHT22;47835;52.778;5.956;2024-02-26T12:45:15;6.20;99.90
61896;DHT22;47835;52.778;5.956;2024-02-26T12:47:45;6.20;99.90
61896;DHT22;47835;52.778;5.956;2024-02-26T12:50:16;6.20;99.90
61896;DHT22;47835;52.778;5.956;2024-02-26T12:52:47;6.20;99.90
61896;DHT22;47835;52.778;5.956;2024-02-26T12:55:20;6.20;99.90
61896;DHT22;47835;52.778;5.956;2024-02-26T12:57:46;6.30;99.90
61896;DHT22;47835;52.778;5.956;2024-02-26T13:00:18;6.20;99.90
61896;DHT22;47835;52.778;5.956;2024-02-26T13:02:46;6.20;99.90
61896;DHT22;47835;52.778;5.956;2024-02-26T13:05:14;6.20;99.90
61896;DHT22;47835;52.778;5.956;2024-02-26T13:07:42;6.40;99.90
61896;DHT22;47835;52.778;5.956;2024-02-26T13:10:08;6.40;99.90
61896;DHT22;47835;52.778;5.956;2024-02-26T13:12:34;6.30;99.90
61896;DHT22;47835;52.778;5.956;2024-02-26T13:15:01;6.30;99.90
61896;DHT22;47835;52.778;5.956;2024-02-26T13:17:27;6.30;99.90
61896;DHT22;47835;52.778;5.956;2024-02-26T13:19:56;6.30;99.90
61896;DHT22;47835;52.778;5.956;2024-02-26T13:22:25;6.30;99.90
61896;DHT22;47835;52.778;5.956;2024-02-26T13:24:57;6.30;99.90
61896;DHT22;47835;52.778;5.956;2024-02-26T13:27:32;6.30;99.90
61896;DHT22;47835;52.778;5.956;2024-02-26T13:32:33;6.30;99.90
61896;DHT22;47835;52.778;5.956;2024-02-26T13:35:14;6.20;99.90
61896;DHT22;47835;52.778;5.956;2024-02-26T13:37:43;6.20;99.90
61896;DHT22;47835;52.778;5.956;2024-02-26T13:40:10;6.40;99.90
61896;DHT22;47835;52.778;5.956;2024-02-26T13:42:39;6.20;99.90
61896;DHT22;47835;52.778;5.956;2024-02-26T13:45:08;6.20;99.90
61896;DHT22;47835;52.778;5.956;2024-02-26T13:47:34;6.20;99.90
61896;DHT22;47835;52.778;5.956;2024-02-26T13:50:00;6.30;99.90
61896;DHT22;47835;52.778;5.956;2024-02-26T13:52:26;6.20;99.90
61896;DHT22;47835;52.778;5.956;2024-02-26T13:54:55;6.20;99.90
61896;DHT22;47835;52.778;5.956;2024-02-26T13:57:21;6.20;99.90
61896;DHT22;47835;52.778;5.956;2024-02-26T13:59:46;6.20;99.90
61896;DHT22;47835;52.778;5.956;2024-02-26T14:02:13;6.20;99.90
61896;DHT22;47835;52.778;5.956;2024-02-26T14:04:39;6.20;99.90
61896;DHT22;47835;52.778;5.956;2024-02-26T14:07:05;6.20;99.90
61896;DHT22;47835;52.778;5.956;2024-02-26T14:09:31;6.10;99.90
61896;DHT22;47835;52.778;5.956;2024-02-26T14:11:58;6.20;99.90
61896;DHT22;47835;52.778;5.956;2024-02-26T14:14:24;6.00;99.90
61896;DHT22;47835;52.778;5.956;2024-02-26T14:16:54;6.00;99.90
61896;DHT22;47835;52.778;5.956;2024-02-26T14:19:22;6.00;99.90
61896;DHT22;47835;52.778;5.956;2024-02-26T14:21:50;6.00;99.90
61896;DHT22;47835;52.778;5.956;2024-02-26T14:24:16;6.00;99.90
61896;DHT22;47835;52.778;5.956;2024-02-26T14:26:42;6.00;99.90
61896;DHT22;47835;52.778;5.956;2024-02-26T14:29:08;6.00;99.90
61896;DHT22;47835;52.778;5.956;2024-02-26T14:31:33;5.90;99.90
61896;DHT22;47835;52.778;5.956;2024-02-26T14:33:59;5.90;99.90
61896;DHT22;47835;52.778;5.956;2024-02-26T14:36:28;5.90;99.90
61896;DHT22;47835;52.778;5.956;2024-02-26T14:38:54;6.00;99.90
61896;DHT22;47835;52.778;5.956;2024-02-26T14:41:21;5.90;99.90
61896;DHT22;47835;52.778;5.956;2024-02-26T14:43:46;5.90;99.90
61896;DHT22;47835;52.778;5.956;2024-02-26T14:46:12;5.90;99.90
61896;DHT22;47835;52.778;5.956;2024-02-26T14:48:38;5.90;99.90
61896;DHT22;47835;52.778;5.956;2024-02-26T14:51:04;5.90;99.90
61896;DHT22;47835;52.778;5.956;2024-02-26T14:53:32;5.90;99.90
61896;DHT22;47835;52.778;5.956;2024-02-26T14:55:58;5.90;99.90
61896;DHT22;47835;52.778;5.956;2024-02-26T14:58:23;5.80;99.90
61896;DHT22;47835;52.778;5.956;2024-02-26T15:00:49;5.70;99.90
61896;DHT22;47835;52.778;5.956;2024-02-26T15:03:15;5.90;99.90
61896;DHT22;47835;52.778;5.956;2024-02-26T15:05:43;5.80;99.90
61896;DHT22;47835;52.778;5.956;2024-02-26T15:08:09;5.80;99.90
61896;DHT22;47835;52.778;5.956;2024-02-26T15:10:35;5.80;99.90
61896;DHT22;47835;52.778;5.956;2024-02-26T15:13:01;5.80;99.90
61896;DHT22;47835;52.778;5.956;2024-02-26T15:15:27;5.70;99.90
61896;DHT22;47835;52.778;5.956;2024-02-26T15:17:53;5.60;99.90
61896;DHT22;47835;52.778;5.956;2024-02-26T15:20:22;5.70;99.90
61896;DHT22;47835;52.778;5.956;2024-02-26T15:22:49;5.70;99.90
61896;DHT22;47835;52.778;5.956;2024-02-26T15:25:17;5.70;99.90
61896;DHT22;47835;52.778;5.956;2024-02-26T15:27:45;5.70;99.90
61896;DHT22;47835;52.778;5.956;2024-02-26T15:30:11;5.70;99.90
61896;DHT22;47835;52.778;5.956;2024-02-26T15:32:39;5.60;99.90
61896;DHT22;47835;52.778;5.956;2024-02-26T15:35:14;5.60;99.90
61896;DHT22;47835;52.778;5.956;2024-02-26T15:37:43;5.60;99.90
61896;DHT22;47835;52.778;5.956;2024-02-26T15:40:09;5.60;99.90
61896;DHT22;47835;52.778;5.956;2024-02-26T15:42:38;5.60;99.90
61896;DHT22;47835;52.778;5.956;2024-02-26T15:45:04;5.50;99.90
61896;DHT22;47835;52.778;5.956;2024-02-26T15:47:33;5.60;99.90
61896;DHT22;47835;52.778;5.956;2024-02-26T15:50:01;5.60;99.90
61896;DHT22;47835;52.778;5.956;2024-02-26T15:52:27;5.50;99.90
61896;DHT22;47835;52.778;5.956;2024-02-26T15:55:10;5.50;99.90
61896;DHT22;47835;52.778;5.956;2024-02-26T15:57:36;5.50;99.90
61896;DHT22;47835;52.778;5.956;2024-02-26T16:00:02;5.40;99.90
61896;DHT22;47835;52.778;5.956;2024-02-26T16:02:32;5.50;99.90
61896;DHT22;47835;52.778;5.956;2024-02-26T16:04:57;5.40;99.90
61896;DHT22;47835;52.778;5.956;2024-02-26T16:07:32;5.50;99.90
61896;DHT22;47835;52.778;5.956;2024-02-26T16:09:59;5.40;99.90
61896;DHT22;47835;52.778;5.956;2024-02-26T16:12:52;5.40;99.90
61896;DHT22;47835;52.778;5.956;2024-02-26T16:15:19;5.40;99.90
61896;DHT22;47835;52.778;5.956;2024-02-26T16:17:49;5.30;99.90
61896;DHT22;47835;52.778;5.956;2024-02-26T16:20:20;5.40;99.90
61896;DHT22;47835;52.778;5.956;2024-02-26T16:22:57;5.40;99.90
61896;DHT22;47835;52.778;5.956;2024-02-26T16:25:31;5.40;99.90
61896;DHT22;47835;52.778;5.956;2024-02-26T16:28:00;5.30;99.90
61896;DHT22;47835;52.778;5.956;2024-02-26T16:30:25;5.30;99.90
61896;DHT22;47835;52.778;5.956;2024-02-26T16:32:59;5.40;99.90
61896;DHT22;47835;52.778;5.956;2024-02-26T16:35:25;5.30;99.90
61896;DHT22;47835;52.778;5.956;2024-02-26T16:37:54;5.30;99.90
61896;DHT22;47835;52.778;5.956;2024-02-26T16:40:23;5.30;99.90
61896;DHT22;47835;52.778;5.956;2024-02-26T16:42:49;5.30;99.90
61896;DHT22;47835;52.778;5.956;2024-02-26T16:45:18;5.40;99.90
61896;DHT22;47835;52.778;5.956;2024-02-26T16:48:09;5.20;99.90
61896;DHT22;47835;52.778;5.956;2024-02-26T16:50:35;5.30;99.90
61896;DHT22;47835;52.778;5.956;2024-02-26T16:53:01;5.20;99.90
61896;DHT22;47835;52.778;5.956;2024-02-26T16:55:27;5.20;99.90
61896;DHT22;47835;52.778;5.956;2024-02-26T16:57:54;5.20;99.90
61896;DHT22;47835;52.778;5.956;2024-02-26T17:00:23;5.20;99.90
61896;DHT22;47835;52.778;5.956;2024-02-26T17:02:51;5.20;99.90
61896;DHT22;47835;52.778;5.956;2024-02-26T17:05:22;5.20;99.90
61896;DHT22;47835;52.778;5.956;2024-02-26T17:07:48;5.20;99.90
61896;DHT22;47835;52.778;5.956;2024-02-26T17:10:16;5.10;99.90
61896;DHT22;47835;52.778;5.956;2024-02-26T17:13:02;5.10;99.90
61896;DHT22;47835;52.778;5.956;2024-02-26T17:15:29;5.10;99.90
61896;DHT22;47835;52.778;5.956;2024-02-26T17:17:55;5.10;99.90
61896;DHT22;47835;52.778;5.956;2024-02-26T17:20:23;5.10;99.90
61896;DHT22;47835;52.778;5.956;2024-02-26T17:22:51;5.10;99.90
61896;DHT22;47835;52.778;5.956;2024-02-26T17:25:17;5.10;99.90
61896;DHT22;47835;52.778;5.956;2024-02-26T17:27:43;5.10;99.90
61896;DHT22;47835;52.778;5.956;2024-02-26T17:30:11;5.00;99.90